Portada
METAR-TAF:

METAR-TAF

Aeroports :

Shijiazhuang, Xina

latitud: 38-16-51N, longitud: 114-41-48E, altitud: 233 m

Observació

L'informe es va fer fa 1 hora i 1 minuts, a les 11:00 UTC
Vent 2 kt del Est/Sud-Est
Temperatura -3°C
Humitat 93%
Pressió 1031 hPa
Visibilitat: 1000 m
boirina

METAR: ZBSJ 071100Z 12001MPS 1000 R15/1400D BR NSC M03/M04 Q1031 NOSIG

Hora: 20:01 (12:01 UTC)

Pronòstic

L'informe es va fer fa 29 minuts, a les 11:32 UTC
Pronòstic vàlid del 07 a les 12 UTC al 08 a les 12 UTC
Vent 6 kt del Sud-Est
Visibilitat: 0200 m
boira gebradora
Evolucionant progressivament
l' 08 a les 02 UTC al 08 a les 03 UTC
Visibilitat: 0800 m
boira gebradora
Evolucionant progressivament
l' 08 a les 05 UTC al 08 a les 06 UTC
Visibilitat: 1600 m
boirina

TAF: ZBSJ 071132Z 0712/0812 14003MPS 0200 FZFG NSC TX04/0806Z TNM07/21Z BECMG 0802/0803 0800 FZFG BECMG 0805/0806 1600 BR

Observacions i pronòstics meteorològics de més de 4000 aeroports (METAR i TAF).

Les estacions disponibles són els punts grocs i vermells al mapa.

Posi el ratolí al punt desitjat per veure el nom de l'estació.

Feu clic per veure les observacions i els pronòstics meteorològics.

Per canviar el mapa: feu clic els botons verds amb una creu de color negre per apropar; al botó verd amb un guió per allunyar la imatge; o en les fletxes verdes per a mapes adjacents.


METAR-TAF: